KANJ

Sault Ste Marie Municipal / Sanderson Field Airport

Sault Ste Marie, Michigan, USA
METAR KANJ 211255Z AUTO 32010KT 10SM OVC022 M08/M11 A3033 RMK AO2 SNE32 SLP279 P0000 T10781111
Observed Flight Rules
Feb-21 @ 12:55 UTC (26 minutes ago) Marginal Visual Flight Rules
Wind Visibility Clouds
320° at 10 knots 10 miles
  • Overcast at 2,200' AGL
Temperatures Readings Precipitation
Current -8°C / 18°F
Dewpoint -11°C / 12°F
Humidity 79%
Altimeter 30.33" Hg
Pressure 1027.9 hPa
Elevation 218
Current Rain 0.005
METAR KANJ 211255Z AUTO 32010KT 10SM OVC022 M08/M11 A3033 RMK AO2 SNE32 SLP279 P0000 T10781111
Observed Flight Rules
Feb-21 @ 12:55 UTC
(26 minutes ago)
MVFR
Wind Visibility
320° at 10 knots 10 miles
Clouds
  • Overcast at 2,200' AGL
Temperature Dewpoint
-8°C / 18°F -11°C / 12°F
Humidity Altimeter Pressure
79% 30.33" Hg 1027.9 hPa
Current Rain
0.005